createdAt,value
2022-09-12T00:00:42.049Z,11.10
2022-09-12T00:02:15.319Z,11.00
2022-09-12T00:03:49.082Z,11.00
2022-09-12T00:05:23.267Z,11.00
2022-09-12T00:06:57.515Z,11.00
2022-09-12T00:08:30.755Z,11.00
2022-09-12T00:10:08.991Z,10.90
2022-09-12T00:11:49.098Z,10.90
2022-09-12T00:13:27.128Z,10.90
2022-09-12T00:15:03.172Z,10.90
2022-09-12T00:16:39.703Z,10.90
2022-09-12T00:18:17.793Z,10.90
2022-09-12T00:19:51.199Z,10.80
2022-09-12T00:21:26.434Z,10.90
2022-09-12T00:22:59.891Z,10.80
2022-09-12T00:24:33.934Z,10.80
2022-09-12T00:26:11.467Z,10.80
2022-09-12T00:27:46.120Z,10.80
2022-09-12T00:29:23.197Z,10.80
2022-09-12T00:30:57.288Z,10.70
2022-09-12T00:32:30.967Z,10.70
2022-09-12T00:34:04.485Z,10.70
2022-09-12T00:35:48.624Z,10.70
2022-09-12T00:37:21.907Z,10.70
2022-09-12T00:38:56.113Z,10.70
2022-09-12T00:40:28.765Z,10.70
2022-09-12T00:42:10.145Z,10.60
2022-09-12T00:43:48.061Z,10.60
2022-09-12T00:45:30.620Z,10.60
2022-09-12T00:47:15.106Z,10.60
2022-09-12T00:48:57.914Z,10.60
2022-09-12T00:50:33.508Z,10.50
2022-09-12T00:52:14.673Z,10.50
2022-09-12T00:53:59.840Z,10.60
2022-09-12T00:55:39.355Z,10.50
2022-09-12T00:57:17.401Z,10.50
2022-09-12T00:59:01.424Z,10.50
2022-09-12T01:00:43.529Z,10.40
2022-09-12T01:02:26.559Z,10.50
2022-09-12T01:04:06.340Z,10.40
2022-09-12T01:05:55.756Z,10.40
2022-09-12T01:07:30.726Z,10.40
2022-09-12T01:09:05.890Z,10.40
2022-09-12T01:10:45.055Z,10.40
2022-09-12T01:12:24.526Z,10.30
2022-09-12T01:14:01.730Z,10.30
2022-09-12T01:15:43.139Z,10.30
2022-09-12T01:17:21.066Z,10.30
2022-09-12T01:19:19.291Z,10.30
2022-09-12T01:21:15.767Z,10.30
2022-09-12T01:23:44.354Z,10.30
2022-09-12T01:25:34.097Z,10.20
2022-09-12T01:27:48.650Z,10.20
2022-09-12T01:30:18.853Z,10.20
2022-09-12T01:32:01.651Z,10.20
2022-09-12T01:33:57.174Z,10.20
2022-09-12T01:35:42.539Z,10.10
2022-09-12T01:37:28.502Z,10.10
2022-09-12T01:39:05.052Z,10.10
2022-09-12T01:41:05.765Z,10.10
2022-09-12T01:42:53.851Z,10.10
2022-09-12T01:44:39.265Z,10.00
2022-09-12T01:46:20.827Z,10.00
2022-09-12T01:48:08.258Z,10.00
2022-09-12T01:49:53.321Z,10.00
2022-09-12T01:51:34.017Z,10.00
2022-09-12T01:53:21.357Z,10.00
2022-09-12T01:55:09.577Z,10.00
2022-09-12T01:56:48.237Z,9.90
2022-09-12T01:58:26.884Z,9.90
2022-09-12T02:00:11.428Z,9.90
2022-09-12T02:02:10.435Z,9.90
2022-09-12T02:03:55.318Z,9.90
2022-09-12T02:05:35.581Z,9.90
2022-09-12T02:07:20.472Z,9.90
2022-09-12T02:09:04.027Z,9.90
2022-09-12T02:10:46.192Z,9.90
2022-09-12T02:12:35.371Z,9.90
2022-09-12T02:14:20.309Z,9.80
2022-09-12T02:16:05.355Z,9.80
2022-09-12T02:17:51.910Z,9.80
2022-09-12T02:19:32.642Z,9.80
2022-09-12T02:21:08.755Z,9.80
2022-09-12T02:22:46.572Z,9.80
2022-09-12T02:24:26.056Z,9.80
2022-09-12T02:26:05.839Z,9.70
2022-09-12T02:27:47.237Z,9.70
2022-09-12T02:29:23.722Z,9.70
2022-09-12T02:31:04.896Z,9.70
2022-09-12T02:32:47.657Z,9.70
2022-09-12T02:34:45.298Z,9.70
2022-09-12T02:36:34.899Z,9.60
2022-09-12T02:38:14.519Z,9.60
2022-09-12T02:39:49.510Z,9.60
2022-09-12T02:41:24.041Z,9.60
2022-09-12T02:43:00.926Z,9.60
2022-09-12T02:44:39.111Z,9.60
2022-09-12T02:46:20.378Z,9.50
2022-09-12T02:48:04.262Z,9.50
2022-09-12T02:49:40.896Z,9.50
2022-09-12T02:51:20.391Z,9.50
2022-09-12T02:53:04.570Z,9.50
2022-09-12T02:54:41.068Z,9.50
2022-09-12T02:56:22.047Z,9.50
2022-09-12T02:57:54.373Z,9.40
2022-09-12T03:00:41.643Z,9.40
2022-09-12T03:02:35.576Z,9.40
2022-09-12T03:04:41.501Z,9.40
2022-09-12T03:06:31.164Z,9.40
2022-09-12T03:08:36.942Z,9.40
2022-09-12T03:10:32.680Z,9.30
2022-09-12T03:12:27.833Z,9.30
2022-09-12T03:14:22.272Z,9.30
2022-09-12T03:16:18.191Z,9.30
2022-09-12T03:18:24.446Z,9.30
2022-09-12T03:20:09.476Z,9.20
2022-09-12T03:22:01.478Z,9.20
2022-09-12T03:23:46.057Z,9.20
2022-09-12T03:25:24.916Z,9.10
2022-09-12T03:27:08.856Z,9.20
2022-09-12T03:28:48.189Z,9.10
2022-09-12T03:30:33.632Z,9.10
2022-09-12T03:32:07.364Z,9.10
2022-09-12T03:33:40.700Z,9.10
2022-09-12T03:35:22.995Z,9.10
2022-09-12T03:37:02.771Z,9.10
2022-09-12T03:38:38.139Z,9.10
2022-09-12T03:40:12.065Z,9.10
2022-09-12T03:41:47.775Z,9.00
2022-09-12T03:43:22.576Z,9.00
2022-09-12T03:44:54.935Z,9.10
2022-09-12T03:46:30.916Z,9.00
2022-09-12T03:48:08.375Z,9.00
2022-09-12T03:49:44.632Z,9.00
2022-09-12T03:51:19.295Z,9.00
2022-09-12T03:52:51.856Z,9.00
2022-09-12T03:54:25.303Z,9.00
2022-09-12T03:56:01.603Z,8.90
2022-09-12T03:57:38.236Z,9.00
2022-09-12T03:59:21.216Z,8.90
2022-09-12T04:00:59.169Z,8.90
2022-09-12T04:02:35.412Z,8.90
2022-09-12T04:04:12.979Z,8.90
2022-09-12T04:05:47.451Z,8.90
2022-09-12T04:07:21.303Z,8.90
2022-09-12T04:08:56.789Z,8.90
2022-09-12T04:10:30.003Z,8.80
2022-09-12T04:12:07.309Z,8.90
2022-09-12T04:13:42.840Z,8.80
2022-09-12T04:15:18.337Z,8.80
2022-09-12T04:16:53.439Z,8.80
2022-09-12T04:18:27.381Z,8.80
2022-09-12T04:20:05.512Z,8.80
2022-09-12T04:21:40.366Z,8.80
2022-09-12T04:23:16.389Z,8.80
2022-09-12T04:24:52.874Z,8.80
2022-09-12T04:26:31.603Z,8.70
2022-09-12T04:28:06.226Z,8.70
2022-09-12T04:29:40.683Z,8.70
2022-09-12T04:31:15.646Z,8.70
2022-09-12T04:32:48.935Z,8.70
2022-09-12T04:34:25.327Z,8.70
2022-09-12T04:36:05.028Z,8.70
2022-09-12T04:37:44.131Z,8.70
2022-09-12T04:39:19.476Z,8.70
2022-09-12T04:40:57.022Z,8.60
2022-09-12T04:42:31.111Z,8.60
2022-09-12T04:44:10.228Z,8.60
2022-09-12T04:45:45.441Z,8.60
2022-09-12T04:47:18.947Z,8.60
2022-09-12T04:48:56.987Z,8.50
2022-09-12T04:50:33.130Z,8.60
2022-09-12T04:52:06.731Z,8.60
2022-09-12T04:53:41.381Z,8.60
2022-09-12T04:55:18.197Z,8.50
2022-09-12T04:56:55.580Z,8.50
2022-09-12T04:58:28.250Z,8.50
2022-09-12T05:00:13.255Z,8.50
2022-09-12T05:01:47.068Z,8.50
2022-09-12T05:03:25.156Z,8.50
2022-09-12T05:04:58.535Z,8.50
2022-09-12T05:06:39.167Z,8.50
2022-09-12T05:08:12.392Z,8.40
2022-09-12T05:09:45.946Z,8.40
2022-09-12T05:11:36.849Z,8.40
2022-09-12T05:13:14.776Z,8.40
2022-09-12T05:14:49.171Z,8.40
2022-09-12T05:16:27.196Z,8.40
2022-09-12T05:18:00.700Z,8.40
2022-09-12T05:19:34.203Z,8.40
2022-09-12T05:21:14.176Z,8.40
2022-09-12T05:22:50.067Z,8.40
2022-09-12T05:24:28.696Z,8.40
2022-09-12T05:26:04.213Z,8.40
2022-09-12T05:27:41.376Z,8.40
2022-09-12T05:29:16.594Z,8.40
2022-09-12T05:31:02.850Z,8.30
2022-09-12T05:32:38.384Z,8.40
2022-09-12T05:34:12.903Z,8.30
2022-09-12T05:35:54.209Z,8.30
2022-09-12T05:37:27.618Z,8.30
2022-09-12T05:39:04.852Z,8.30
2022-09-12T05:40:39.042Z,8.30
2022-09-12T05:42:14.707Z,8.30
2022-09-12T05:43:54.434Z,8.30
2022-09-12T05:45:28.030Z,8.30
2022-09-12T05:47:01.327Z,8.30
2022-09-12T05:48:35.188Z,8.30
2022-09-12T05:50:12.280Z,8.30
2022-09-12T05:51:47.256Z,8.30
2022-09-12T05:53:20.297Z,8.30
2022-09-12T05:54:53.757Z,8.30
2022-09-12T05:56:30.942Z,8.30
2022-09-12T05:58:12.176Z,8.30
2022-09-12T05:59:46.783Z,8.30
2022-09-12T06:01:21.074Z,8.30
2022-09-12T06:02:54.764Z,8.30
2022-09-12T06:04:29.165Z,8.30
2022-09-12T06:06:07.530Z,8.30
2022-09-12T06:07:45.840Z,8.30
2022-09-12T06:09:19.292Z,8.30
2022-09-12T06:11:02.450Z,8.30
2022-09-12T06:12:35.819Z,8.40
2022-09-12T06:14:10.884Z,8.40
2022-09-12T06:15:45.508Z,8.40
2022-09-12T06:17:20.838Z,8.40
2022-09-12T06:18:57.615Z,8.40
2022-09-12T06:20:32.644Z,8.50
2022-09-12T06:22:08.923Z,8.50
2022-09-12T06:23:46.988Z,8.50
2022-09-12T06:25:22.150Z,8.50
2022-09-12T06:26:59.323Z,8.60
2022-09-12T06:28:34.367Z,8.60
2022-09-12T06:30:11.699Z,8.60
2022-09-12T06:31:46.892Z,8.60
2022-09-12T06:33:20.923Z,8.70
2022-09-12T06:34:54.910Z,8.70
2022-09-12T06:36:30.780Z,8.70
2022-09-12T06:38:07.840Z,8.80
2022-09-12T06:39:41.301Z,8.80
2022-09-12T06:41:18.249Z,8.80
2022-09-12T06:42:51.677Z,8.90
2022-09-12T06:44:38.451Z,8.90
2022-09-12T06:46:13.406Z,9.00
2022-09-12T06:47:48.234Z,9.00
2022-09-12T06:49:22.194Z,9.00
2022-09-12T06:50:59.855Z,9.10
2022-09-12T06:52:36.087Z,9.10
2022-09-12T06:54:11.684Z,9.20
2022-09-12T06:55:49.883Z,9.20
2022-09-12T06:57:28.035Z,9.30
2022-09-12T06:59:01.619Z,9.40
2022-09-12T07:00:35.127Z,9.40
2022-09-12T07:02:12.411Z,9.50
2022-09-12T07:03:51.309Z,9.50
2022-09-12T07:05:26.495Z,9.70
2022-09-12T07:07:05.392Z,9.70
2022-09-12T07:08:42.086Z,9.90
2022-09-12T07:10:22.199Z,9.90
2022-09-12T07:11:56.043Z,9.90
2022-09-12T07:13:34.776Z,10.10
2022-09-12T07:15:10.417Z,10.10
2022-09-12T07:16:44.976Z,10.20
2022-09-12T07:18:18.539Z,10.30
2022-09-12T07:19:53.289Z,10.30
2022-09-12T07:21:27.112Z,10.40
2022-09-12T07:23:00.481Z,10.50
2022-09-12T07:24:33.836Z,10.60
2022-09-12T07:26:10.060Z,10.70
2022-09-12T07:27:51.106Z,10.80
2022-09-12T07:29:36.383Z,10.90
2022-09-12T07:31:13.003Z,11.00
2022-09-12T07:32:46.292Z,11.10
2022-09-12T07:34:19.736Z,11.20
2022-09-12T07:35:58.338Z,11.20
2022-09-12T07:37:32.247Z,11.30
2022-09-12T07:39:07.299Z,11.40
2022-09-12T07:40:41.726Z,11.50
2022-09-12T07:42:15.363Z,11.60
2022-09-12T07:43:50.922Z,11.60
2022-09-12T07:45:24.192Z,11.70
2022-09-12T07:46:57.378Z,11.80
2022-09-12T07:48:32.651Z,11.90
2022-09-12T07:50:07.171Z,12.00
2022-09-12T07:51:47.214Z,12.00
2022-09-12T07:53:20.556Z,12.10
2022-09-12T07:54:54.043Z,12.20
2022-09-12T07:56:33.714Z,12.30
2022-09-12T07:58:15.335Z,12.30
2022-09-12T07:59:53.311Z,12.40
2022-09-12T08:01:27.331Z,12.50
2022-09-12T08:03:02.711Z,12.50
2022-09-12T08:04:37.812Z,12.60
2022-09-12T08:06:14.841Z,12.70
2022-09-12T08:07:49.851Z,12.70
2022-09-12T08:09:24.940Z,12.80
2022-09-12T08:11:06.034Z,12.90
2022-09-12T08:12:39.999Z,12.90
2022-09-12T08:14:13.673Z,13.00
2022-09-12T08:15:48.540Z,13.00
2022-09-12T08:17:22.138Z,13.10
2022-09-12T08:18:55.734Z,13.10
2022-09-12T08:20:32.869Z,13.20
2022-09-12T08:22:06.504Z,13.30
2022-09-12T08:23:41.488Z,13.30
2022-09-12T08:25:14.736Z,13.40
2022-09-12T08:26:48.548Z,13.50
2022-09-12T08:28:23.413Z,13.60
2022-09-12T08:29:56.775Z,13.60
2022-09-12T08:31:31.813Z,13.60
2022-09-12T08:33:05.612Z,13.70
2022-09-12T08:34:41.981Z,13.80
2022-09-12T08:36:22.036Z,13.80
2022-09-12T08:38:06.775Z,13.90
2022-09-12T08:39:44.907Z,14.00
2022-09-12T08:41:30.384Z,14.00
2022-09-12T08:43:20.000Z,14.10
2022-09-12T08:45:10.205Z,14.10
2022-09-12T08:47:04.712Z,14.20
2022-09-12T08:48:40.429Z,14.30
2022-09-12T08:50:21.653Z,14.40
2022-09-12T08:51:57.970Z,14.50
2022-09-12T08:53:37.390Z,14.60
2022-09-12T08:55:34.085Z,14.60
2022-09-12T08:57:11.628Z,14.70
2022-09-12T08:58:47.504Z,14.80
2022-09-12T09:00:22.435Z,14.90
2022-09-12T09:02:04.716Z,15.00
2022-09-12T09:04:09.422Z,15.00
2022-09-12T09:05:52.849Z,15.20
2022-09-12T09:07:55.588Z,15.30
2022-09-12T09:09:47.808Z,15.30
2022-09-12T09:11:48.172Z,15.40
2022-09-12T09:14:05.028Z,15.50
2022-09-12T09:15:59.873Z,15.60
2022-09-12T09:17:39.763Z,15.70
2022-09-12T09:19:21.027Z,15.80
2022-09-12T09:21:04.620Z,15.90
2022-09-12T09:22:46.492Z,16.00
2022-09-12T09:24:28.023Z,16.10
2022-09-12T09:26:25.336Z,16.20
2022-09-12T09:28:17.724Z,16.30
2022-09-12T09:29:56.719Z,16.40
2022-09-12T09:31:39.977Z,16.50
2022-09-12T09:33:30.847Z,16.60
2022-09-12T09:35:18.982Z,16.70
2022-09-12T09:37:03.667Z,16.80
2022-09-12T09:38:49.347Z,16.90
2022-09-12T09:40:31.735Z,17.00
2022-09-12T09:42:25.685Z,17.10
2022-09-12T09:44:03.761Z,17.30
2022-09-12T09:45:44.597Z,17.40
2022-09-12T09:47:20.905Z,17.50
2022-09-12T09:48:59.255Z,17.60
2022-09-12T09:50:36.524Z,17.70
2022-09-12T09:52:17.376Z,17.80
2022-09-12T09:54:00.844Z,17.80
2022-09-12T09:55:46.997Z,17.90
2022-09-12T09:57:41.762Z,18.00
2022-09-12T09:59:21.714Z,18.10
2022-09-12T10:01:01.424Z,18.20
2022-09-12T10:02:40.815Z,18.20
2022-09-12T10:04:26.551Z,18.30
2022-09-12T10:06:22.372Z,18.40
2022-09-12T10:07:55.761Z,18.50
2022-09-12T10:09:33.081Z,18.60
2022-09-12T10:11:17.949Z,18.70
2022-09-12T10:13:07.939Z,18.80
2022-09-12T10:14:58.368Z,18.90
2022-09-12T10:16:34.527Z,19.00
2022-09-12T10:18:08.017Z,19.10
2022-09-12T10:19:42.852Z,19.30
2022-09-12T10:21:30.741Z,19.30
2022-09-12T10:23:30.120Z,19.40
2022-09-12T10:25:11.427Z,19.60
2022-09-12T10:26:56.965Z,19.70
2022-09-12T10:28:37.344Z,19.80
2022-09-12T10:30:21.670Z,19.80
2022-09-12T10:32:03.505Z,19.90
2022-09-12T10:33:45.143Z,20.10
2022-09-12T10:35:22.428Z,20.20
2022-09-12T10:37:05.590Z,20.20
2022-09-12T10:38:53.727Z,20.30
2022-09-12T10:40:31.073Z,20.50
2022-09-12T10:42:06.592Z,20.50
2022-09-12T10:43:44.922Z,20.60
2022-09-12T10:45:31.779Z,20.70
2022-09-12T10:47:22.403Z,20.80
2022-09-12T10:49:21.547Z,20.90
2022-09-12T10:50:57.610Z,21.00
2022-09-12T10:52:31.161Z,21.10
2022-09-12T10:54:11.348Z,21.20
2022-09-12T10:56:07.565Z,21.20
2022-09-12T10:58:13.053Z,21.30
2022-09-12T11:00:15.936Z,21.40
2022-09-12T11:02:04.217Z,21.50
2022-09-12T11:04:07.363Z,21.50
2022-09-12T11:05:54.026Z,21.60
2022-09-12T11:07:47.481Z,21.60
2022-09-12T11:09:31.224Z,21.70
2022-09-12T11:11:18.444Z,21.80
2022-09-12T11:13:07.924Z,21.80
2022-09-12T11:15:05.457Z,21.80
2022-09-12T11:16:54.026Z,21.90
2022-09-12T11:19:01.318Z,22.00
2022-09-12T11:21:09.472Z,22.10
2022-09-12T11:23:12.525Z,22.20
2022-09-12T11:25:19.016Z,22.30
2022-09-12T11:27:11.831Z,22.40
2022-09-12T11:28:59.768Z,22.50
2022-09-12T11:30:45.839Z,22.60
2022-09-12T11:32:54.155Z,22.70
2022-09-12T11:34:51.103Z,22.70
2022-09-12T11:36:40.175Z,22.80
2022-09-12T11:38:55.582Z,22.90
2022-09-12T11:40:38.876Z,22.90
2022-09-12T11:42:27.055Z,23.00
2022-09-12T11:44:13.926Z,23.10
2022-09-12T11:45:51.019Z,23.10
2022-09-12T11:47:29.754Z,23.20
2022-09-12T11:49:17.753Z,23.20
2022-09-12T11:50:55.980Z,23.30
2022-09-12T11:52:40.067Z,23.30
2022-09-12T11:54:23.891Z,23.40
2022-09-12T11:56:09.324Z,23.50
2022-09-12T11:57:50.401Z,23.50
2022-09-12T11:59:39.240Z,23.60
2022-09-12T12:01:18.850Z,23.70
2022-09-12T12:03:04.092Z,23.70
2022-09-12T12:04:45.981Z,23.80
2022-09-12T12:06:29.296Z,23.80
2022-09-12T12:08:08.140Z,23.90
2022-09-12T12:09:55.816Z,23.90
2022-09-12T12:11:37.993Z,24.00
2022-09-12T12:13:27.827Z,24.00
2022-09-12T12:15:03.994Z,24.10
2022-09-12T12:16:42.688Z,24.10
2022-09-12T12:18:24.980Z,24.10
2022-09-12T12:20:08.619Z,24.10
2022-09-12T12:21:45.211Z,24.10
2022-09-12T12:23:29.784Z,24.20
2022-09-12T12:25:33.359Z,24.20
2022-09-12T12:27:48.422Z,24.30
2022-09-12T12:29:44.175Z,24.30
2022-09-12T12:31:24.876Z,24.30
2022-09-12T12:33:01.365Z,24.30
2022-09-12T12:34:36.849Z,24.40
2022-09-12T12:36:32.971Z,24.40
2022-09-12T12:38:30.297Z,24.40
2022-09-12T12:40:11.623Z,24.40
2022-09-12T12:41:48.766Z,24.40
2022-09-12T12:43:38.140Z,24.40
2022-09-12T12:45:48.776Z,24.40
2022-09-12T12:47:25.197Z,24.40
2022-09-12T12:49:11.907Z,24.40
2022-09-12T12:50:45.760Z,24.40
2022-09-12T12:52:20.627Z,24.40
2022-09-12T12:54:00.369Z,24.50
2022-09-12T12:55:50.187Z,24.50
2022-09-12T12:57:50.657Z,24.50
2022-09-12T12:59:24.199Z,24.50
2022-09-12T13:01:15.947Z,24.50
2022-09-12T13:02:57.793Z,24.60
2022-09-12T13:04:34.200Z,24.60
2022-09-12T13:06:20.518Z,24.60
2022-09-12T13:07:59.599Z,24.60
2022-09-12T13:09:44.296Z,24.70
2022-09-12T13:11:33.343Z,24.70
2022-09-12T13:13:09.954Z,24.80
2022-09-12T13:14:56.290Z,24.80
2022-09-12T13:16:37.176Z,24.80
2022-09-12T13:18:16.310Z,24.80
2022-09-12T13:20:00.802Z,24.80
2022-09-12T13:21:57.276Z,24.90
2022-09-12T13:23:33.908Z,24.90
2022-09-12T13:25:26.651Z,24.90
2022-09-12T13:27:00.720Z,24.90
2022-09-12T13:28:34.007Z,24.90
2022-09-12T13:30:14.523Z,24.90
2022-09-12T13:31:52.651Z,25.00
2022-09-12T13:33:43.031Z,24.90
2022-09-12T13:35:30.801Z,24.90
2022-09-12T13:37:50.862Z,24.90
2022-09-12T13:39:29.901Z,24.90
2022-09-12T13:41:27.417Z,24.90
2022-09-12T13:43:16.335Z,25.00
2022-09-12T13:44:53.959Z,25.00
2022-09-12T13:46:33.912Z,25.00
2022-09-12T13:48:15.112Z,25.00
2022-09-12T13:49:50.796Z,25.00
2022-09-12T13:51:29.012Z,25.00
2022-09-12T13:53:06.718Z,25.10
2022-09-12T13:54:40.345Z,25.10
2022-09-12T13:56:20.466Z,25.10
2022-09-12T13:58:00.371Z,25.10
2022-09-12T13:59:40.883Z,25.20
2022-09-12T14:01:17.130Z,25.20
2022-09-12T14:03:11.135Z,25.20
2022-09-12T14:05:12.358Z,25.30
2022-09-12T14:06:50.184Z,25.30
2022-09-12T14:08:25.291Z,25.30
2022-09-12T14:10:01.196Z,25.30
2022-09-12T14:11:41.171Z,25.30
2022-09-12T14:13:21.910Z,25.40
2022-09-12T14:14:55.783Z,25.40
2022-09-12T14:16:31.729Z,25.40
2022-09-12T14:18:08.792Z,25.50
2022-09-12T14:19:43.747Z,25.50
2022-09-12T14:21:34.896Z,25.50
2022-09-12T14:23:20.244Z,25.60
2022-09-12T14:24:54.804Z,25.60
2022-09-12T14:26:34.245Z,25.70
2022-09-12T14:28:16.958Z,25.70
2022-09-12T14:30:02.648Z,25.70
2022-09-12T14:31:39.276Z,25.70
2022-09-12T14:33:22.015Z,25.80
2022-09-12T14:35:20.766Z,25.80
2022-09-12T14:36:57.080Z,25.70
2022-09-12T14:38:37.736Z,25.80
2022-09-12T14:40:20.660Z,25.70
2022-09-12T14:42:06.539Z,25.70
2022-09-12T14:43:46.798Z,25.70
2022-09-12T14:45:28.332Z,25.70
2022-09-12T14:47:15.933Z,25.70
2022-09-12T14:48:54.177Z,25.70
2022-09-12T14:50:32.818Z,25.60
2022-09-12T14:52:16.927Z,25.60
2022-09-12T14:53:49.919Z,25.60
2022-09-12T14:55:33.545Z,25.60
2022-09-12T14:57:28.523Z,25.60
2022-09-12T14:59:31.085Z,25.60
2022-09-12T15:01:26.061Z,25.60
2022-09-12T15:03:26.316Z,25.60
2022-09-12T15:05:20.982Z,25.60
2022-09-12T15:06:54.825Z,25.60
2022-09-12T15:08:28.480Z,25.60
2022-09-12T15:10:07.295Z,25.60
2022-09-12T15:11:41.606Z,25.60
2022-09-12T15:13:20.723Z,25.70
2022-09-12T15:15:00.617Z,25.60
2022-09-12T15:16:34.036Z,25.60
2022-09-12T15:18:07.249Z,25.60
2022-09-12T15:19:40.527Z,25.60
2022-09-12T15:21:18.338Z,25.60
2022-09-12T15:22:54.888Z,25.60
2022-09-12T15:24:32.138Z,25.60
2022-09-12T15:26:06.319Z,25.60
2022-09-12T15:27:42.753Z,25.60
2022-09-12T15:29:20.916Z,25.50
2022-09-12T15:31:20.274Z,25.50
2022-09-12T15:32:59.936Z,25.50
2022-09-12T15:34:38.980Z,25.40
2022-09-12T15:36:24.365Z,25.40
2022-09-12T15:38:01.364Z,25.40
2022-09-12T15:39:36.882Z,25.30
2022-09-12T15:41:13.774Z,25.20
2022-09-12T15:43:01.520Z,25.20
2022-09-12T15:44:35.079Z,25.10
2022-09-12T15:46:16.864Z,25.00
2022-09-12T15:47:57.484Z,25.00
2022-09-12T15:49:31.135Z,25.00
2022-09-12T15:51:09.359Z,24.90
2022-09-12T15:52:45.320Z,24.90
2022-09-12T15:54:21.652Z,24.80
2022-09-12T15:55:55.783Z,24.80
2022-09-12T15:57:32.424Z,24.70
2022-09-12T15:59:08.159Z,24.70
2022-09-12T16:00:43.902Z,24.70
2022-09-12T16:02:28.673Z,24.60
2022-09-12T16:04:06.977Z,24.50
2022-09-12T16:05:51.395Z,24.50
2022-09-12T16:07:24.511Z,24.40
2022-09-12T16:09:00.459Z,24.30
2022-09-12T16:10:36.545Z,24.30
2022-09-12T16:12:09.899Z,24.20
2022-09-12T16:13:43.575Z,24.20
2022-09-12T16:15:20.787Z,24.10
2022-09-12T16:16:57.738Z,24.10
2022-09-12T16:18:32.320Z,24.10
2022-09-12T16:20:06.997Z,24.00
2022-09-12T16:21:40.459Z,24.00
2022-09-12T16:23:14.846Z,23.90
2022-09-12T16:24:48.627Z,23.90
2022-09-12T16:26:21.936Z,23.80
2022-09-12T16:27:55.685Z,23.80
2022-09-12T16:29:29.799Z,23.70
2022-09-12T16:31:05.650Z,23.70
2022-09-12T16:32:39.080Z,23.60
2022-09-12T16:34:14.151Z,23.60
2022-09-12T16:35:47.600Z,23.50
2022-09-12T16:37:21.239Z,23.40
2022-09-12T16:38:55.520Z,23.40
2022-09-12T16:40:29.043Z,23.40
2022-09-12T16:42:02.624Z,23.30
2022-09-12T16:43:38.214Z,23.20
2022-09-12T16:45:13.130Z,23.20
2022-09-12T16:46:46.600Z,23.10
2022-09-12T16:48:20.305Z,23.00
2022-09-12T16:49:55.047Z,22.90
2022-09-12T16:51:31.871Z,22.90
2022-09-12T16:53:05.215Z,22.80
2022-09-12T16:54:38.647Z,22.80
2022-09-12T16:56:12.159Z,22.70
2022-09-12T16:57:46.076Z,22.60
2022-09-12T16:59:19.798Z,22.60
2022-09-12T17:01:02.139Z,22.50
2022-09-12T17:02:35.701Z,22.50
2022-09-12T17:04:10.763Z,22.40
2022-09-12T17:05:45.324Z,22.30
2022-09-12T17:07:18.907Z,22.20
2022-09-12T17:08:54.205Z,22.20
2022-09-12T17:10:27.929Z,22.10
2022-09-12T17:12:01.442Z,22.10
2022-09-12T17:14:02.665Z,22.00
2022-09-12T17:15:43.291Z,21.90
2022-09-12T17:17:22.933Z,21.90
2022-09-12T17:19:04.078Z,21.80
2022-09-12T17:20:41.450Z,21.70
2022-09-12T17:22:23.784Z,21.70
2022-09-12T17:23:59.155Z,21.60
2022-09-12T17:25:33.060Z,21.60
2022-09-12T17:27:06.537Z,21.50
2022-09-12T17:28:40.936Z,21.50
2022-09-12T17:30:14.807Z,21.40
2022-09-12T17:31:48.823Z,21.40
2022-09-12T17:33:22.413Z,21.30
2022-09-12T17:34:55.807Z,21.30
2022-09-12T17:36:31.459Z,21.20
2022-09-12T17:38:06.898Z,21.20
2022-09-12T17:39:40.163Z,21.10
2022-09-12T17:41:16.197Z,21.10
2022-09-12T17:42:49.571Z,21.00
2022-09-12T17:44:24.177Z,21.00
2022-09-12T17:45:58.226Z,20.90
2022-09-12T17:47:31.560Z,20.90
2022-09-12T17:49:08.939Z,20.80
2022-09-12T17:50:43.172Z,20.80
2022-09-12T17:52:16.650Z,20.70
2022-09-12T17:53:55.880Z,20.60
2022-09-12T17:55:32.031Z,20.50
2022-09-12T17:57:06.256Z,20.50
2022-09-12T17:58:40.048Z,20.50
2022-09-12T18:00:16.259Z,20.40
2022-09-12T18:02:08.195Z,20.40
2022-09-12T18:03:41.030Z,20.30
2022-09-12T18:05:15.136Z,20.30
2022-09-12T18:06:48.741Z,20.20
2022-09-12T18:08:23.704Z,20.20
2022-09-12T18:09:59.703Z,20.10
2022-09-12T18:11:32.290Z,20.00
2022-09-12T18:13:05.720Z,20.00
2022-09-12T18:14:39.884Z,19.90
2022-09-12T18:16:15.020Z,19.90
2022-09-12T18:17:48.239Z,19.80
2022-09-12T18:19:23.334Z,19.80
2022-09-12T18:20:56.660Z,19.70
2022-09-12T18:22:30.023Z,19.70
2022-09-12T18:24:04.860Z,19.70
2022-09-12T18:25:40.357Z,19.60
2022-09-12T18:27:14.219Z,19.50
2022-09-12T18:28:47.714Z,19.40
2022-09-12T18:30:22.897Z,19.40
2022-09-12T18:31:56.322Z,19.30
2022-09-12T18:33:30.118Z,19.30
2022-09-12T18:35:04.082Z,19.20
2022-09-12T18:36:46.439Z,19.20
2022-09-12T18:38:23.733Z,19.10
2022-09-12T18:40:04.321Z,19.10
2022-09-12T18:42:00.201Z,19.00
2022-09-12T18:43:37.279Z,19.00
2022-09-12T18:45:16.995Z,18.90
2022-09-12T18:46:55.235Z,18.80
2022-09-12T18:48:28.660Z,18.80
2022-09-12T18:50:01.875Z,18.70
2022-09-12T18:51:40.053Z,18.70
2022-09-12T18:53:14.752Z,18.60
2022-09-12T18:54:48.186Z,18.60
2022-09-12T18:56:23.809Z,18.50
2022-09-12T18:57:58.499Z,18.50
2022-09-12T18:59:32.142Z,18.40
2022-09-12T19:01:14.198Z,18.40
2022-09-12T19:02:49.507Z,18.40
2022-09-12T19:04:23.296Z,18.30
2022-09-12T19:05:56.756Z,18.20
2022-09-12T19:07:30.275Z,18.20
2022-09-12T19:09:08.062Z,18.10
2022-09-12T19:10:41.856Z,18.10
2022-09-12T19:12:15.465Z,18.00
2022-09-12T19:13:52.234Z,18.00
2022-09-12T19:15:25.812Z,17.90
2022-09-12T19:16:59.352Z,17.90
2022-09-12T19:18:34.030Z,17.80
2022-09-12T19:20:08.110Z,17.80
2022-09-12T19:21:41.983Z,17.70
2022-09-12T19:23:15.996Z,17.70
2022-09-12T19:24:49.244Z,17.70
2022-09-12T19:26:24.177Z,17.60
2022-09-12T19:27:57.443Z,17.60
2022-09-12T19:29:32.648Z,17.50
2022-09-12T19:31:07.681Z,17.50
2022-09-12T19:32:41.148Z,17.50
2022-09-12T19:34:16.098Z,17.40
2022-09-12T19:35:50.354Z,17.40
2022-09-12T19:37:23.678Z,17.30
2022-09-12T19:38:57.219Z,17.30
2022-09-12T19:40:31.200Z,17.30
2022-09-12T19:42:04.866Z,17.20
2022-09-12T19:43:38.215Z,17.20
2022-09-12T19:45:13.158Z,17.10
2022-09-12T19:46:46.458Z,17.10
2022-09-12T19:48:20.095Z,17.10
2022-09-12T19:49:54.019Z,17.00
2022-09-12T19:51:27.534Z,17.10
2022-09-12T19:53:00.880Z,17.00
2022-09-12T19:54:34.527Z,16.90
2022-09-12T19:56:09.693Z,16.90
2022-09-12T19:57:43.265Z,16.80
2022-09-12T19:59:16.492Z,16.80
2022-09-12T20:00:51.322Z,16.80
2022-09-12T20:02:27.740Z,16.70
2022-09-12T20:04:01.227Z,16.70
2022-09-12T20:05:37.529Z,16.70
2022-09-12T20:07:14.091Z,16.60
2022-09-12T20:08:48.123Z,16.70
2022-09-12T20:10:21.780Z,16.60
2022-09-12T20:11:55.140Z,16.60
2022-09-12T20:13:29.332Z,16.50
2022-09-12T20:15:04.508Z,16.50
2022-09-12T20:16:39.948Z,16.50
2022-09-12T20:18:15.524Z,16.40
2022-09-12T20:19:49.907Z,16.40
2022-09-12T20:21:30.904Z,16.40
2022-09-12T20:23:05.041Z,16.40
2022-09-12T20:24:38.635Z,16.30
2022-09-12T20:26:11.531Z,16.30
2022-09-12T20:27:45.539Z,16.30
2022-09-12T20:29:21.693Z,16.30
2022-09-12T20:30:55.187Z,16.20
2022-09-12T20:32:30.758Z,16.20
2022-09-12T20:34:05.134Z,16.20
2022-09-12T20:35:38.764Z,16.10
2022-09-12T20:37:12.408Z,16.10
2022-09-12T20:38:50.524Z,16.10
2022-09-12T20:40:24.129Z,16.00
2022-09-12T20:41:57.708Z,16.00
2022-09-12T20:43:30.131Z,16.00
2022-09-12T20:45:03.459Z,16.00
2022-09-12T20:46:37.240Z,15.90
2022-09-12T20:48:11.004Z,15.90
2022-09-12T20:49:44.515Z,15.90
2022-09-12T20:51:18.354Z,15.90
2022-09-12T20:52:51.595Z,15.80
2022-09-12T20:54:25.459Z,15.80
2022-09-12T20:55:58.750Z,15.80
2022-09-12T20:57:32.200Z,15.80
2022-09-12T20:59:06.077Z,15.70
2022-09-12T21:00:40.572Z,15.70
2022-09-12T21:02:16.012Z,15.70
2022-09-12T21:03:51.895Z,15.70
2022-09-12T21:05:25.166Z,15.70
2022-09-12T21:06:59.567Z,15.70
2022-09-12T21:08:33.470Z,15.70
2022-09-12T21:10:08.031Z,15.60
2022-09-12T21:11:40.359Z,15.60
2022-09-12T21:13:14.854Z,15.60
2022-09-12T21:14:48.323Z,15.60
2022-09-12T21:16:24.096Z,15.50
2022-09-12T21:17:57.926Z,15.50
2022-09-12T21:19:32.852Z,15.50
2022-09-12T21:21:07.005Z,15.50
2022-09-12T21:22:41.554Z,15.50
2022-09-12T21:24:15.599Z,15.50
2022-09-12T21:25:52.471Z,15.40
2022-09-12T21:27:26.185Z,15.40
2022-09-12T21:29:02.296Z,15.40
2022-09-12T21:30:35.935Z,15.40
2022-09-12T21:32:13.931Z,15.30
2022-09-12T21:33:47.770Z,15.30
2022-09-12T21:35:21.777Z,15.30